Terminal Aerodrome Forecast
Issued by NWS

Home | Current Version | Previous Version | Text Only | Print | Product List | Glossary On
Versions: 1 2 3 4 5 6 7 8 9 10 11 12 13 14 15 16 17
000
FTUS44 KBMX 102300
TAFMGM
TAF
KMGM 102321Z 1100/1124 29007KT P6SM VCSH SCT050
     FM110100 VRB03KT P6SM SCT050
     FM110800 VRB02KT 5SM BR SCT015
     FM111400 34004KT P6SM SCT030=

USA.gov is the U.S. government's official web portal to all federal, state and local government web resources and services.